Arbyrd, Missouri
Current Conditions -  °F | °C
As of 8:53 AM on Wednesday 26 Nov 2014 (Local Time) from KHKA Reporting Station
Clear Clear  
Wind Chill:   Ceiling: Unl
Heat Index:   Visibility: 10mi
Dew Point: -1°   Wind: 13mph
Humidity: 54%   Direction: 170°S
Pressure: 30.11"   Gusts: NA
Location:  36.05°N, 90.24°W
Report Text: KHKA 261453Z AUTO 17011KT 10SM CLR 08/M01 A3011 RMK AO2 SLP197 T00831006 56008
Loading
Personal Weather Stations






























Interactive Weather Map New forecast layout! Learn more

10-Day Weather Forecast

Advertisements
Track Severe Weather on mobile